sensor_id;sensor_type;location;lat;lon;timestamp;P1;durP1;ratioP1;P2;durP2;ratioP2
51020;SDS011;38907;45.562;8.856;2023-07-13T00:01:54;11.13;;;5.53;;
51020;SDS011;38907;45.562;8.856;2023-07-13T00:06:56;15.00;;;6.70;;
51020;SDS011;38907;45.562;8.856;2023-07-13T00:11:59;18.43;;;7.40;;
51020;SDS011;38907;45.562;8.856;2023-07-13T00:17:03;11.02;;;6.45;;
51020;SDS011;38907;45.562;8.856;2023-07-13T00:22:05;9.82;;;5.63;;
51020;SDS011;38907;45.562;8.856;2023-07-13T00:27:08;7.53;;;5.93;;
51020;SDS011;38907;45.562;8.856;2023-07-13T00:32:11;10.90;;;6.25;;
51020;SDS011;38907;45.562;8.856;2023-07-13T00:37:13;11.40;;;6.65;;
51020;SDS011;38907;45.562;8.856;2023-07-13T00:42:16;9.63;;;5.43;;
51020;SDS011;38907;45.562;8.856;2023-07-13T00:47:18;10.32;;;6.13;;
51020;SDS011;38907;45.562;8.856;2023-07-13T00:52:20;8.37;;;6.33;;
51020;SDS011;38907;45.562;8.856;2023-07-13T00:57:23;9.18;;;6.05;;
51020;SDS011;38907;45.562;8.856;2023-07-13T01:02:26;7.57;;;5.10;;
51020;SDS011;38907;45.562;8.856;2023-07-13T01:07:29;7.70;;;4.82;;
51020;SDS011;38907;45.562;8.856;2023-07-13T01:12:32;12.47;;;5.80;;
51020;SDS011;38907;45.562;8.856;2023-07-13T01:17:35;11.00;;;4.95;;
51020;SDS011;38907;45.562;8.856;2023-07-13T01:22:38;9.90;;;5.20;;
51020;SDS011;38907;45.562;8.856;2023-07-13T01:27:40;10.00;;;4.75;;
51020;SDS011;38907;45.562;8.856;2023-07-13T01:32:42;6.73;;;4.53;;
51020;SDS011;38907;45.562;8.856;2023-07-13T01:37:45;7.72;;;4.03;;
51020;SDS011;38907;45.562;8.856;2023-07-13T01:42:47;8.48;;;4.13;;
51020;SDS011;38907;45.562;8.856;2023-07-13T01:47:49;12.13;;;4.65;;
51020;SDS011;38907;45.562;8.856;2023-07-13T01:52:52;5.78;;;3.70;;
51020;SDS011;38907;45.562;8.856;2023-07-13T01:57:54;9.95;;;4.20;;
51020;SDS011;38907;45.562;8.856;2023-07-13T02:02:56;13.85;;;4.95;;
51020;SDS011;38907;45.562;8.856;2023-07-13T02:07:59;8.02;;;4.28;;
51020;SDS011;38907;45.562;8.856;2023-07-13T02:13:01;5.50;;;3.88;;
51020;SDS011;38907;45.562;8.856;2023-07-13T02:18:05;7.60;;;3.92;;
51020;SDS011;38907;45.562;8.856;2023-07-13T02:23:08;7.93;;;3.83;;
51020;SDS011;38907;45.562;8.856;2023-07-13T02:28:10;4.97;;;3.85;;
51020;SDS011;38907;45.562;8.856;2023-07-13T02:33:12;11.40;;;4.57;;
51020;SDS011;38907;45.562;8.856;2023-07-13T02:38:15;8.23;;;4.10;;
51020;SDS011;38907;45.562;8.856;2023-07-13T02:43:17;8.18;;;4.28;;
51020;SDS011;38907;45.562;8.856;2023-07-13T02:48:19;13.17;;;4.97;;
51020;SDS011;38907;45.562;8.856;2023-07-13T02:53:22;9.90;;;4.40;;
51020;SDS011;38907;45.562;8.856;2023-07-13T02:58:24;9.70;;;5.75;;
51020;SDS011;38907;45.562;8.856;2023-07-13T03:03:26;8.97;;;5.47;;
51020;SDS011;38907;45.562;8.856;2023-07-13T03:13:31;11.10;;;4.83;;
51020;SDS011;38907;45.562;8.856;2023-07-13T03:18:33;10.27;;;4.70;;
51020;SDS011;38907;45.562;8.856;2023-07-13T03:28:39;7.70;;;5.07;;
51020;SDS011;38907;45.562;8.856;2023-07-13T03:33:42;11.02;;;4.55;;
51020;SDS011;38907;45.562;8.856;2023-07-13T03:38:46;9.65;;;4.30;;
51020;SDS011;38907;45.562;8.856;2023-07-13T03:43:48;8.15;;;4.63;;
51020;SDS011;38907;45.562;8.856;2023-07-13T03:48:50;10.43;;;4.88;;
51020;SDS011;38907;45.562;8.856;2023-07-13T03:53:54;12.53;;;4.80;;
51020;SDS011;38907;45.562;8.856;2023-07-13T03:58:55;10.18;;;4.80;;
51020;SDS011;38907;45.562;8.856;2023-07-13T04:03:57;10.98;;;4.80;;
51020;SDS011;38907;45.562;8.856;2023-07-13T04:09:02;12.20;;;5.47;;
51020;SDS011;38907;45.562;8.856;2023-07-13T04:14:05;11.27;;;5.60;;
51020;SDS011;38907;45.562;8.856;2023-07-13T04:19:07;12.87;;;6.40;;
51020;SDS011;38907;45.562;8.856;2023-07-13T04:24:11;7.88;;;4.97;;
51020;SDS011;38907;45.562;8.856;2023-07-13T04:29:13;9.45;;;5.05;;
51020;SDS011;38907;45.562;8.856;2023-07-13T04:34:15;7.67;;;5.17;;
51020;SDS011;38907;45.562;8.856;2023-07-13T04:39:18;8.77;;;4.90;;
51020;SDS011;38907;45.562;8.856;2023-07-13T04:44:20;10.75;;;5.03;;
51020;SDS011;38907;45.562;8.856;2023-07-13T04:49:22;7.87;;;4.73;;
51020;SDS011;38907;45.562;8.856;2023-07-13T04:54:25;6.90;;;4.57;;
51020;SDS011;38907;45.562;8.856;2023-07-13T04:59:27;11.95;;;5.45;;
51020;SDS011;38907;45.562;8.856;2023-07-13T05:04:29;7.97;;;4.93;;
51020;SDS011;38907;45.562;8.856;2023-07-13T05:09:32;7.23;;;4.93;;
51020;SDS011;38907;45.562;8.856;2023-07-13T05:14:34;8.25;;;4.75;;
51020;SDS011;38907;45.562;8.856;2023-07-13T05:19:37;12.82;;;6.05;;
51020;SDS011;38907;45.562;8.856;2023-07-13T05:24:40;14.85;;;4.68;;
51020;SDS011;38907;45.562;8.856;2023-07-13T05:29:42;7.45;;;4.13;;
51020;SDS011;38907;45.562;8.856;2023-07-13T05:34:44;6.63;;;3.60;;
51020;SDS011;38907;45.562;8.856;2023-07-13T05:39:47;9.13;;;3.83;;
51020;SDS011;38907;45.562;8.856;2023-07-13T05:44:50;7.30;;;4.72;;
51020;SDS011;38907;45.562;8.856;2023-07-13T05:49:51;7.17;;;4.73;;
51020;SDS011;38907;45.562;8.856;2023-07-13T05:54:55;5.80;;;4.38;;
51020;SDS011;38907;45.562;8.856;2023-07-13T05:59:57;5.40;;;3.22;;
51020;SDS011;38907;45.562;8.856;2023-07-13T06:04:58;5.33;;;2.87;;
51020;SDS011;38907;45.562;8.856;2023-07-13T06:10:02;3.60;;;2.80;;
51020;SDS011;38907;45.562;8.856;2023-07-13T06:15:04;7.88;;;2.55;;
51020;SDS011;38907;45.562;8.856;2023-07-13T06:20:07;2.55;;;1.95;;
51020;SDS011;38907;45.562;8.856;2023-07-13T06:25:11;4.75;;;2.20;;
51020;SDS011;38907;45.562;8.856;2023-07-13T06:30:13;4.65;;;2.08;;
51020;SDS011;38907;45.562;8.856;2023-07-13T06:35:15;5.63;;;2.60;;
51020;SDS011;38907;45.562;8.856;2023-07-13T06:40:18;4.65;;;2.85;;
51020;SDS011;38907;45.562;8.856;2023-07-13T06:45:20;5.30;;;2.35;;
51020;SDS011;38907;45.562;8.856;2023-07-13T06:50:22;4.55;;;2.85;;
51020;SDS011;38907;45.562;8.856;2023-07-13T06:55:25;7.43;;;3.63;;
51020;SDS011;38907;45.562;8.856;2023-07-13T07:00:27;4.18;;;3.05;;
51020;SDS011;38907;45.562;8.856;2023-07-13T07:05:29;8.40;;;3.70;;
51020;SDS011;38907;45.562;8.856;2023-07-13T07:10:33;6.03;;;3.10;;
51020;SDS011;38907;45.562;8.856;2023-07-13T07:15:35;4.20;;;2.40;;
51020;SDS011;38907;45.562;8.856;2023-07-13T07:20:37;5.75;;;2.60;;
51020;SDS011;38907;45.562;8.856;2023-07-13T07:25:40;3.28;;;2.28;;
51020;SDS011;38907;45.562;8.856;2023-07-13T07:30:44;5.15;;;2.15;;
51020;SDS011;38907;45.562;8.856;2023-07-13T07:35:46;3.00;;;1.92;;
51020;SDS011;38907;45.562;8.856;2023-07-13T07:40:49;4.35;;;2.08;;
51020;SDS011;38907;45.562;8.856;2023-07-13T07:45:51;5.38;;;2.00;;
51020;SDS011;38907;45.562;8.856;2023-07-13T07:50:53;2.28;;;1.85;;
51020;SDS011;38907;45.562;8.856;2023-07-13T07:55:56;2.78;;;1.90;;
51020;SDS011;38907;45.562;8.856;2023-07-13T08:01:02;3.38;;;2.03;;
51020;SDS011;38907;45.562;8.856;2023-07-13T08:06:05;4.05;;;2.30;;
51020;SDS011;38907;45.562;8.856;2023-07-13T08:11:08;3.05;;;2.03;;
51020;SDS011;38907;45.562;8.856;2023-07-13T08:16:11;3.47;;;2.10;;
51020;SDS011;38907;45.562;8.856;2023-07-13T08:21:13;2.95;;;2.42;;
51020;SDS011;38907;45.562;8.856;2023-07-13T08:26:16;5.15;;;2.45;;
51020;SDS011;38907;45.562;8.856;2023-07-13T08:31:18;6.15;;;2.38;;
51020;SDS011;38907;45.562;8.856;2023-07-13T08:36:20;7.85;;;2.40;;
51020;SDS011;38907;45.562;8.856;2023-07-13T08:41:23;6.03;;;2.00;;
51020;SDS011;38907;45.562;8.856;2023-07-13T08:46:26;5.13;;;2.88;;
51020;SDS011;38907;45.562;8.856;2023-07-13T08:51:36;7.38;;;2.70;;
51020;SDS011;38907;45.562;8.856;2023-07-13T08:56:45;4.93;;;2.70;;
51020;SDS011;38907;45.562;8.856;2023-07-13T09:01:54;4.38;;;2.58;;
51020;SDS011;38907;45.562;8.856;2023-07-13T09:07:19;11.40;;;3.40;;
51020;SDS011;38907;45.562;8.856;2023-07-13T09:12:34;6.28;;;2.70;;
51020;SDS011;38907;45.562;8.856;2023-07-13T09:17:48;7.47;;;3.10;;
51020;SDS011;38907;45.562;8.856;2023-07-13T09:22:51;9.38;;;2.60;;
51020;SDS011;38907;45.562;8.856;2023-07-13T09:27:56;7.90;;;3.05;;
51020;SDS011;38907;45.562;8.856;2023-07-13T09:33:00;6.00;;;3.17;;
51020;SDS011;38907;45.562;8.856;2023-07-13T09:43:13;6.85;;;2.85;;
51020;SDS011;38907;45.562;8.856;2023-07-13T09:48:17;4.38;;;2.90;;
51020;SDS011;38907;45.562;8.856;2023-07-13T09:53:20;7.25;;;3.20;;
51020;SDS011;38907;45.562;8.856;2023-07-13T09:58:25;7.10;;;3.40;;
51020;SDS011;38907;45.562;8.856;2023-07-13T10:03:32;9.23;;;3.25;;
51020;SDS011;38907;45.562;8.856;2023-07-13T10:08:37;7.00;;;3.60;;
51020;SDS011;38907;45.562;8.856;2023-07-13T10:18:45;5.80;;;3.38;;
51020;SDS011;38907;45.562;8.856;2023-07-13T10:23:50;7.15;;;2.83;;
51020;SDS011;38907;45.562;8.856;2023-07-13T10:28:57;6.13;;;3.97;;
51020;SDS011;38907;45.562;8.856;2023-07-13T10:34:03;5.97;;;3.47;;
51020;SDS011;38907;45.562;8.856;2023-07-13T10:39:06;10.35;;;5.63;;
51020;SDS011;38907;45.562;8.856;2023-07-13T10:44:15;10.80;;;6.57;;
51020;SDS011;38907;45.562;8.856;2023-07-13T10:49:22;9.85;;;6.68;;
51020;SDS011;38907;45.562;8.856;2023-07-13T10:54:30;11.73;;;7.93;;
51020;SDS011;38907;45.562;8.856;2023-07-13T10:59:34;8.80;;;5.85;;
51020;SDS011;38907;45.562;8.856;2023-07-13T11:04:39;8.50;;;5.18;;
51020;SDS011;38907;45.562;8.856;2023-07-13T11:09:43;7.10;;;3.80;;
51020;SDS011;38907;45.562;8.856;2023-07-13T11:15:02;6.72;;;3.60;;
51020;SDS011;38907;45.562;8.856;2023-07-13T11:20:26;9.05;;;3.67;;
51020;SDS011;38907;45.562;8.856;2023-07-13T11:25:37;9.13;;;3.90;;
51020;SDS011;38907;45.562;8.856;2023-07-13T11:30:40;10.30;;;4.53;;
51020;SDS011;38907;45.562;8.856;2023-07-13T11:35:48;9.82;;;4.72;;
51020;SDS011;38907;45.562;8.856;2023-07-13T11:40:59;15.85;;;4.72;;
51020;SDS011;38907;45.562;8.856;2023-07-13T11:46:15;6.70;;;4.38;;
51020;SDS011;38907;45.562;8.856;2023-07-13T11:51:21;6.10;;;3.90;;
51020;SDS011;38907;45.562;8.856;2023-07-13T11:56:26;10.30;;;4.45;;
51020;SDS011;38907;45.562;8.856;2023-07-13T12:01:30;12.25;;;6.05;;
51020;SDS011;38907;45.562;8.856;2023-07-13T12:06:34;8.63;;;5.55;;
51020;SDS011;38907;45.562;8.856;2023-07-13T12:11:40;9.25;;;5.35;;
51020;SDS011;38907;45.562;8.856;2023-07-13T12:16:44;11.45;;;6.00;;
51020;SDS011;38907;45.562;8.856;2023-07-13T12:21:49;9.80;;;4.80;;
51020;SDS011;38907;45.562;8.856;2023-07-13T12:26:54;10.90;;;6.22;;
51020;SDS011;38907;45.562;8.856;2023-07-13T12:32:03;12.05;;;5.93;;
51020;SDS011;38907;45.562;8.856;2023-07-13T12:37:11;13.63;;;7.60;;
51020;SDS011;38907;45.562;8.856;2023-07-13T12:42:19;12.95;;;6.55;;
51020;SDS011;38907;45.562;8.856;2023-07-13T12:47:27;8.98;;;5.57;;
51020;SDS011;38907;45.562;8.856;2023-07-13T12:52:31;13.13;;;5.97;;
51020;SDS011;38907;45.562;8.856;2023-07-13T12:57:38;11.50;;;5.50;;
51020;SDS011;38907;45.562;8.856;2023-07-13T13:02:43;17.23;;;5.70;;
51020;SDS011;38907;45.562;8.856;2023-07-13T13:07:46;20.38;;;5.57;;
51020;SDS011;38907;45.562;8.856;2023-07-13T13:12:48;14.00;;;5.60;;
51020;SDS011;38907;45.562;8.856;2023-07-13T13:17:54;11.10;;;4.53;;
51020;SDS011;38907;45.562;8.856;2023-07-13T13:22:56;10.95;;;4.72;;
51020;SDS011;38907;45.562;8.856;2023-07-13T13:27:58;9.13;;;4.40;;
51020;SDS011;38907;45.562;8.856;2023-07-13T13:33:02;9.55;;;4.53;;
51020;SDS011;38907;45.562;8.856;2023-07-13T13:38:09;9.45;;;4.45;;
51020;SDS011;38907;45.562;8.856;2023-07-13T13:43:14;10.52;;;4.25;;
51020;SDS011;38907;45.562;8.856;2023-07-13T13:48:20;10.90;;;4.30;;
51020;SDS011;38907;45.562;8.856;2023-07-13T13:53:30;10.48;;;4.15;;
51020;SDS011;38907;45.562;8.856;2023-07-13T13:58:32;14.27;;;4.53;;
51020;SDS011;38907;45.562;8.856;2023-07-13T14:03:36;8.32;;;4.70;;
51020;SDS011;38907;45.562;8.856;2023-07-13T14:08:38;9.52;;;4.80;;
51020;SDS011;38907;45.562;8.856;2023-07-13T14:13:41;7.30;;;4.15;;
51020;SDS011;38907;45.562;8.856;2023-07-13T14:18:48;10.10;;;4.50;;
51020;SDS011;38907;45.562;8.856;2023-07-13T14:23:50;10.50;;;4.45;;
51020;SDS011;38907;45.562;8.856;2023-07-13T14:28:53;6.22;;;4.43;;
51020;SDS011;38907;45.562;8.856;2023-07-13T14:33:57;6.82;;;4.38;;
51020;SDS011;38907;45.562;8.856;2023-07-13T14:39:00;7.28;;;4.10;;
51020;SDS011;38907;45.562;8.856;2023-07-13T14:44:12;13.38;;;4.00;;
51020;SDS011;38907;45.562;8.856;2023-07-13T14:49:24;7.07;;;4.30;;
51020;SDS011;38907;45.562;8.856;2023-07-13T14:54:30;11.82;;;4.93;;
51020;SDS011;38907;45.562;8.856;2023-07-13T14:59:32;7.25;;;4.20;;
51020;SDS011;38907;45.562;8.856;2023-07-13T15:04:36;7.70;;;4.40;;
51020;SDS011;38907;45.562;8.856;2023-07-13T15:09:37;11.40;;;5.20;;
51020;SDS011;38907;45.562;8.856;2023-07-13T15:14:40;7.57;;;4.40;;
51020;SDS011;38907;45.562;8.856;2023-07-13T15:19:43;7.13;;;3.83;;
51020;SDS011;38907;45.562;8.856;2023-07-13T15:24:45;8.00;;;4.20;;
51020;SDS011;38907;45.562;8.856;2023-07-13T15:29:47;9.07;;;4.00;;
51020;SDS011;38907;45.562;8.856;2023-07-13T15:34:50;10.10;;;4.38;;
51020;SDS011;38907;45.562;8.856;2023-07-13T15:39:52;8.15;;;3.67;;
51020;SDS011;38907;45.562;8.856;2023-07-13T15:44:54;11.23;;;4.30;;
51020;SDS011;38907;45.562;8.856;2023-07-13T15:49:59;9.98;;;3.92;;
51020;SDS011;38907;45.562;8.856;2023-07-13T15:55:01;9.23;;;3.55;;
51020;SDS011;38907;45.562;8.856;2023-07-13T16:00:05;8.20;;;3.83;;
51020;SDS011;38907;45.562;8.856;2023-07-13T16:05:20;7.35;;;3.95;;
51020;SDS011;38907;45.562;8.856;2023-07-13T16:10:25;7.78;;;3.42;;
51020;SDS011;38907;45.562;8.856;2023-07-13T16:15:32;9.57;;;3.90;;
51020;SDS011;38907;45.562;8.856;2023-07-13T16:20:35;9.60;;;3.97;;
51020;SDS011;38907;45.562;8.856;2023-07-13T16:25:37;6.78;;;3.80;;
51020;SDS011;38907;45.562;8.856;2023-07-13T16:30:40;7.97;;;2.88;;
51020;SDS011;38907;45.562;8.856;2023-07-13T16:35:43;8.48;;;4.15;;
51020;SDS011;38907;45.562;8.856;2023-07-13T16:40:46;7.63;;;3.53;;
51020;SDS011;38907;45.562;8.856;2023-07-13T16:45:48;10.95;;;4.30;;
51020;SDS011;38907;45.562;8.856;2023-07-13T16:50:53;9.98;;;3.95;;
51020;SDS011;38907;45.562;8.856;2023-07-13T16:55:56;7.38;;;3.92;;
51020;SDS011;38907;45.562;8.856;2023-07-13T17:00:59;7.63;;;4.35;;
51020;SDS011;38907;45.562;8.856;2023-07-13T17:06:13;9.60;;;4.60;;
51020;SDS011;38907;45.562;8.856;2023-07-13T17:11:23;10.63;;;4.38;;
51020;SDS011;38907;45.562;8.856;2023-07-13T17:16:26;7.90;;;4.05;;
51020;SDS011;38907;45.562;8.856;2023-07-13T17:21:29;7.80;;;4.07;;
51020;SDS011;38907;45.562;8.856;2023-07-13T17:26:31;8.77;;;4.88;;
51020;SDS011;38907;45.562;8.856;2023-07-13T17:31:33;9.70;;;4.60;;
51020;SDS011;38907;45.562;8.856;2023-07-13T17:36:36;11.45;;;4.65;;
51020;SDS011;38907;45.562;8.856;2023-07-13T17:41:38;7.30;;;4.03;;
51020;SDS011;38907;45.562;8.856;2023-07-13T17:46:43;12.00;;;5.75;;
51020;SDS011;38907;45.562;8.856;2023-07-13T17:51:48;15.43;;;5.32;;
51020;SDS011;38907;45.562;8.856;2023-07-13T17:56:51;14.30;;;5.57;;
51020;SDS011;38907;45.562;8.856;2023-07-13T18:01:53;13.02;;;5.07;;
51020;SDS011;38907;45.562;8.856;2023-07-13T18:06:56;9.25;;;5.63;;
51020;SDS011;38907;45.562;8.856;2023-07-13T18:12:08;10.55;;;5.30;;
51020;SDS011;38907;45.562;8.856;2023-07-13T18:17:12;9.88;;;4.55;;
51020;SDS011;38907;45.562;8.856;2023-07-13T18:22:16;9.68;;;5.25;;
51020;SDS011;38907;45.562;8.856;2023-07-13T18:27:18;9.57;;;4.68;;
51020;SDS011;38907;45.562;8.856;2023-07-13T18:32:20;10.32;;;5.05;;
51020;SDS011;38907;45.562;8.856;2023-07-13T18:37:23;15.20;;;4.93;;
51020;SDS011;38907;45.562;8.856;2023-07-13T18:42:26;8.93;;;5.20;;
51020;SDS011;38907;45.562;8.856;2023-07-13T18:47:28;16.08;;;7.35;;
51020;SDS011;38907;45.562;8.856;2023-07-13T18:52:36;18.95;;;6.07;;
51020;SDS011;38907;45.562;8.856;2023-07-13T18:57:38;13.18;;;6.47;;
51020;SDS011;38907;45.562;8.856;2023-07-13T19:07:44;13.38;;;7.05;;
51020;SDS011;38907;45.562;8.856;2023-07-13T19:12:48;10.20;;;5.90;;
51020;SDS011;38907;45.562;8.856;2023-07-13T19:17:56;11.63;;;6.00;;
51020;SDS011;38907;45.562;8.856;2023-07-13T19:23:12;13.20;;;6.88;;
51020;SDS011;38907;45.562;8.856;2023-07-13T19:28:26;14.80;;;6.97;;
51020;SDS011;38907;45.562;8.856;2023-07-13T19:33:35;13.15;;;8.10;;
51020;SDS011;38907;45.562;8.856;2023-07-13T19:38:39;22.42;;;8.30;;
51020;SDS011;38907;45.562;8.856;2023-07-13T19:43:42;12.02;;;6.85;;
51020;SDS011;38907;45.562;8.856;2023-07-13T19:48:45;10.88;;;6.35;;
51020;SDS011;38907;45.562;8.856;2023-07-13T19:53:49;9.02;;;6.20;;
51020;SDS011;38907;45.562;8.856;2023-07-13T19:58:52;10.35;;;5.90;;
51020;SDS011;38907;45.562;8.856;2023-07-13T20:03:54;10.30;;;5.63;;
51020;SDS011;38907;45.562;8.856;2023-07-13T20:08:58;12.00;;;5.72;;
51020;SDS011;38907;45.562;8.856;2023-07-13T20:14:04;9.73;;;4.82;;
51020;SDS011;38907;45.562;8.856;2023-07-13T20:19:17;6.60;;;5.05;;
51020;SDS011;38907;45.562;8.856;2023-07-13T20:24:21;10.18;;;4.38;;
51020;SDS011;38907;45.562;8.856;2023-07-13T20:29:23;5.43;;;3.38;;
51020;SDS011;38907;45.562;8.856;2023-07-13T20:39:30;8.70;;;3.00;;
51020;SDS011;38907;45.562;8.856;2023-07-13T20:44:33;6.70;;;3.33;;
51020;SDS011;38907;45.562;8.856;2023-07-13T20:49:36;3.92;;;2.60;;
51020;SDS011;38907;45.562;8.856;2023-07-13T20:59:45;5.75;;;3.13;;
51020;SDS011;38907;45.562;8.856;2023-07-13T21:04:53;4.47;;;3.03;;
51020;SDS011;38907;45.562;8.856;2023-07-13T21:10:04;7.95;;;2.83;;
51020;SDS011;38907;45.562;8.856;2023-07-13T21:15:17;7.38;;;2.95;;
51020;SDS011;38907;45.562;8.856;2023-07-13T21:20:26;4.97;;;2.80;;
51020;SDS011;38907;45.562;8.856;2023-07-13T21:25:36;3.25;;;2.10;;
51020;SDS011;38907;45.562;8.856;2023-07-13T21:30:44;4.22;;;2.33;;
51020;SDS011;38907;45.562;8.856;2023-07-13T21:35:51;3.15;;;2.20;;
51020;SDS011;38907;45.562;8.856;2023-07-13T21:40:59;4.53;;;2.47;;
51020;SDS011;38907;45.562;8.856;2023-07-13T21:46:11;4.47;;;2.53;;
51020;SDS011;38907;45.562;8.856;2023-07-13T21:51:17;4.68;;;2.65;;
51020;SDS011;38907;45.562;8.856;2023-07-13T21:56:27;2.95;;;2.50;;
51020;SDS011;38907;45.562;8.856;2023-07-13T22:01:32;3.47;;;2.53;;
51020;SDS011;38907;45.562;8.856;2023-07-13T22:06:39;6.57;;;2.83;;
51020;SDS011;38907;45.562;8.856;2023-07-13T22:11:45;4.60;;;3.35;;
51020;SDS011;38907;45.562;8.856;2023-07-13T22:16:48;3.90;;;2.58;;
51020;SDS011;38907;45.562;8.856;2023-07-13T22:21:54;6.50;;;2.40;;
51020;SDS011;38907;45.562;8.856;2023-07-13T22:27:03;2.90;;;2.38;;
51020;SDS011;38907;45.562;8.856;2023-07-13T22:32:13;4.82;;;2.50;;
51020;SDS011;38907;45.562;8.856;2023-07-13T22:37:20;5.25;;;2.30;;
51020;SDS011;38907;45.562;8.856;2023-07-13T22:42:28;4.28;;;2.30;;
51020;SDS011;38907;45.562;8.856;2023-07-13T22:47:35;7.25;;;1.90;;
51020;SDS011;38907;45.562;8.856;2023-07-13T22:52:42;5.03;;;2.42;;
51020;SDS011;38907;45.562;8.856;2023-07-13T22:57:53;3.92;;;2.42;;
51020;SDS011;38907;45.562;8.856;2023-07-13T23:02:59;3.20;;;2.45;;
51020;SDS011;38907;45.562;8.856;2023-07-13T23:08:09;5.72;;;2.70;;
51020;SDS011;38907;45.562;8.856;2023-07-13T23:13:20;10.57;;;2.67;;
51020;SDS011;38907;45.562;8.856;2023-07-13T23:18:26;3.00;;;2.40;;
51020;SDS011;38907;45.562;8.856;2023-07-13T23:23:35;4.00;;;2.38;;
51020;SDS011;38907;45.562;8.856;2023-07-13T23:28:44;3.38;;;2.13;;
51020;SDS011;38907;45.562;8.856;2023-07-13T23:33:52;6.22;;;2.60;;
51020;SDS011;38907;45.562;8.856;2023-07-13T23:39:01;11.52;;;2.40;;
51020;SDS011;38907;45.562;8.856;2023-07-13T23:44:07;8.02;;;2.78;;
51020;SDS011;38907;45.562;8.856;2023-07-13T23:49:19;4.60;;;2.25;;
51020;SDS011;38907;45.562;8.856;2023-07-13T23:59:34;4.72;;;2.30;;
